Aurora — V7BS9 — position and weather

sailwx.info

Track history (hours):
 
Tides and Currents Weather Stations Pressure Air Temp Water Temp Dewpoint Dewpoint Depression Visibility Wind Speed Wind Dir Waves Ship Positions

Aurora

Last reported at 2017-Dec-14 17:36 UTC. Time now 2018-Jan-18 02:19 UTC.
Position N 11°14' W 074°38'.
Warning: this ship's position is 34 days out of date.

Length 170 m; draft 6.5 m.

Type: Tanker. MMSI: 538001356.

Date/timePositionNaut miles runAvg speedWind from/ knotsBaromVisibWave heightAir tempDewpointWater temp
2017-Dec-14 17:36N 11°14' W 074°38'111.2
2017-Dec-14 17:30N 11°14' W 074°39'511.0
2017-Dec-14 17:00N 11°12' W 074°44'610.9
2017-Dec-14 16:30N 11°10' W 074°49'4 8.1
2017-Dec-14 16:00N 11°07' W 074°52'5 5.1
2017-Dec-14 14:59N 11°02' W 074°49'0 0.0
2017-Dec-14 14:30N 11°02' W 074°49'0 0.0
2017-Dec-14 13:58N 11°02' W 074°49'0 0.0
2017-Dec-14 13:29N 11°02' W 074°49'0 0.0
2017-Dec-14 12:59N 11°02' W 074°49'0 0.0
2017-Dec-14 12:30N 11°02' W 074°49'0 0.0
2017-Dec-14 11:54N 11°02' W 074°49'0 0.0
2017-Dec-14 11:30N 11°02' W 074°49'0 0.0
2017-Dec-14 10:58N 11°02' W 074°49'0 0.0
2017-Dec-14 10:29N 11°02' W 074°49'0 0.0
2017-Dec-14 09:58N 11°02' W 074°49'0 0.0
2017-Dec-14 09:29N 11°02' W 074°49'0 0.0
2017-Dec-14 08:59N 11°02' W 074°49'0 0.0
2017-Dec-14 08:30N 11°02' W 074°49'0 0.0
2017-Dec-14 07:58N 11°02' W 074°49'0 0.0
2017-Dec-14 07:29N 11°02' W 074°49'0 0.0
2017-Dec-14 06:59N 11°02' W 074°49'0 0.0
2017-Dec-13 16:30N 11°02' W 074°49'1 2.5
2017-Dec-13 16:00N 11°03' W 074°50'4 7.7
2017-Dec-13 15:28N 11°07' W 074°52'2 3.9
2017-Dec-13 15:00N 11°07' W 074°53'9 1.5
2017-Dec-13 08:57N 11°16' W 074°51'0 0.4
2017-Dec-13 08:30N 11°16' W 074°51'0 0.4
2017-Dec-13 07:48N 11°16' W 074°51'0 0.3
2017-Dec-13 07:30N 11°16' W 074°51'0 0.3
2017-Dec-13 07:00N 11°16' W 074°51'0 0.3
2017-Dec-13 06:27N 11°16' W 074°51'0 0.3
2017-Dec-13 05:50N 11°17' W 074°51'0 0.2
2017-Dec-13 05:29N 11°17' W 074°51'0 0.3
2017-Dec-13 04:59N 11°17' W 074°51'1 0.7
2017-Dec-13 03:29N 11°18' W 074°51'1 0.6
2017-Dec-13 02:07N 11°18' W 074°51'0 0.4
2017-Dec-13 01:58N 11°19' W 074°51'0 0.4
2017-Dec-13 01:06N 11°19' W 074°51'0 0.3
2017-Dec-13 01:00N 11°19' W 074°51'1 0.5
2017-Dec-12 23:24N 11°20' W 074°51'  
2017-Dec-07 22:21N 34°27' W 076°38'3 9.9
2017-Dec-07 22:00N 34°30' W 076°39'5 9.7
2017-Dec-07 21:30N 34°35' W 076°40'5 9.5
2017-Dec-07 21:00N 34°40' W 076°40'4 7.2
2017-Dec-07 20:30N 34°43' W 076°42'0 0.0
2017-Dec-07 19:59N 34°43' W 076°42'0 0.0
2017-Dec-07 19:29N 34°43' W 076°42'0 0.0
2017-Dec-07 18:56N 34°43' W 076°42'0 0.0
2017-Dec-07 18:30N 34°43' W 076°42'0 0.0
2017-Dec-07 17:53N 34°43' W 076°42'0 0.0
2017-Dec-07 17:29N 34°43' W 076°42'0 0.0
2017-Dec-07 17:00N 34°43' W 076°42'0 0.0
2017-Dec-07 16:23N 34°43' W 076°42'0 0.0
2017-Dec-07 15:59N 34°43' W 076°42'0 0.0
2017-Dec-07 14:30N 34°43' W 076°42'0 0.0
2017-Dec-07 14:00N 34°43' W 076°42'0 0.0
2017-Dec-07 13:28N 34°43' W 076°42'0 0.0
2017-Dec-07 12:58N 34°43' W 076°42'0 0.0
2017-Dec-07 12:28N 34°43' W 076°42'0 0.0
2017-Dec-07 11:58N 34°43' W 076°42'0 0.0
2017-Dec-07 11:28N 34°43' W 076°42'0 0.0
2017-Dec-07 10:58N 34°43' W 076°42'0 0.0
2017-Dec-07 10:28N 34°43' W 076°42'0 0.0
2017-Dec-07 09:58N 34°43' W 076°42'0 0.0
2017-Dec-07 09:28N 34°43' W 076°42'0 0.0
2017-Dec-07 08:58N 34°43' W 076°42'0 0.0
2017-Dec-07 08:28N 34°43' W 076°42'0 0.0
2017-Dec-07 07:58N 34°43' W 076°42'0 0.0
2017-Dec-07 07:25N 34°43' W 076°42'0 0.0
2017-Dec-07 06:58N 34°43' W 076°42'0 0.0
2017-Dec-07 06:28N 34°43' W 076°42'0 0.0
2017-Dec-07 05:59N 34°43' W 076°42'0 0.0
2017-Dec-07 05:29N 34°43' W 076°42'0 0.0
2017-Dec-07 05:00N 34°43' W 076°42'0 0.0
2017-Dec-07 04:29N 34°43' W 076°42'0 0.0
2017-Dec-07 03:59N 34°43' W 076°42'0 0.0
2017-Dec-07 03:29N 34°43' W 076°42'0 0.0
2017-Dec-07 02:59N 34°43' W 076°42'0 0.0
2017-Dec-07 02:29N 34°43' W 076°42'0 0.0
2017-Dec-07 01:59N 34°43' W 076°42'0 0.0
2017-Dec-07 01:29N 34°43' W 076°42'0 0.0
2017-Dec-07 00:59N 34°43' W 076°42'0 0.0
2017-Dec-07 00:28N 34°43' W 076°42'0 0.0
2017-Dec-07 00:00N 34°43' W 076°42'0 0.0
2017-Dec-06 23:30N 34°43' W 076°42'0 0.0
2017-Dec-06 23:00N 34°43' W 076°42'0 0.0
2017-Dec-06 22:29N 34°43' W 076°42'0 0.0
2017-Dec-06 21:59N 34°43' W 076°42'0 0.0
2017-Dec-06 21:28N 34°43' W 076°42'0 0.5
2017-Dec-06 21:01N 34°43' W 076°42'  
Track history (hours):
 
Tides and Currents Weather Stations Pressure Air Temp Water Temp Dewpoint Dewpoint Depression Visibility Wind Speed Wind Dir Waves Ship Positions

Aurora

Last reported at 2017-Dec-14 17:36 UTC. Time now 2018-Jan-18 02:19 UTC.
Position N 11°14' W 074°38'.
Warning: this ship's position is 34 days out of date.

Length 170 m; draft 6.5 m.

Type: Tanker. MMSI: 538001356.

Date/timePositionNaut miles runAvg speedWind from/ knotsBaromVisibWave heightAir tempDewpointWater temp
2017-Dec-14 17:36N 11°14' W 074°38'111.2
2017-Dec-14 17:30N 11°14' W 074°39'511.0
2017-Dec-14 17:00N 11°12' W 074°44'610.9
2017-Dec-14 16:30N 11°10' W 074°49'4 8.1
2017-Dec-14 16:00N 11°07' W 074°52'5 5.1
2017-Dec-14 14:59N 11°02' W 074°49'0 0.0
2017-Dec-14 14:30N 11°02' W 074°49'0 0.0
2017-Dec-14 13:58N 11°02' W 074°49'0 0.0
2017-Dec-14 13:29N 11°02' W 074°49'0 0.0
2017-Dec-14 12:59N 11°02' W 074°49'0 0.0
2017-Dec-14 12:30N 11°02' W 074°49'0 0.0
2017-Dec-14 11:54N 11°02' W 074°49'0 0.0
2017-Dec-14 11:30N 11°02' W 074°49'0 0.0
2017-Dec-14 10:58N 11°02' W 074°49'0 0.0
2017-Dec-14 10:29N 11°02' W 074°49'0 0.0
2017-Dec-14 09:58N 11°02' W 074°49'0 0.0
2017-Dec-14 09:29N 11°02' W 074°49'0 0.0
2017-Dec-14 08:59N 11°02' W 074°49'0 0.0
2017-Dec-14 08:30N 11°02' W 074°49'0 0.0
2017-Dec-14 07:58N 11°02' W 074°49'0 0.0
2017-Dec-14 07:29N 11°02' W 074°49'0 0.0
2017-Dec-14 06:59N 11°02' W 074°49'0 0.0
2017-Dec-13 16:30N 11°02' W 074°49'1 2.5
2017-Dec-13 16:00N 11°03' W 074°50'4 7.7
2017-Dec-13 15:28N 11°07' W 074°52'2 3.9
2017-Dec-13 15:00N 11°07' W 074°53'9 1.5
2017-Dec-13 08:57N 11°16' W 074°51'0 0.4
2017-Dec-13 08:30N 11°16' W 074°51'0 0.4
2017-Dec-13 07:48N 11°16' W 074°51'0 0.3
2017-Dec-13 07:30N 11°16' W 074°51'0 0.3
2017-Dec-13 07:00N 11°16' W 074°51'0 0.3
2017-Dec-13 06:27N 11°16' W 074°51'0 0.3
2017-Dec-13 05:50N 11°17' W 074°51'0 0.2
2017-Dec-13 05:29N 11°17' W 074°51'0 0.3
2017-Dec-13 04:59N 11°17' W 074°51'1 0.7
2017-Dec-13 03:29N 11°18' W 074°51'1 0.6
2017-Dec-13 02:07N 11°18' W 074°51'0 0.4
2017-Dec-13 01:58N 11°19' W 074°51'0 0.4
2017-Dec-13 01:06N 11°19' W 074°51'0 0.3
2017-Dec-13 01:00N 11°19' W 074°51'1 0.5
2017-Dec-12 23:24N 11°20' W 074°51'  
2017-Dec-07 22:21N 34°27' W 076°38'3 9.9
2017-Dec-07 22:00N 34°30' W 076°39'5 9.7
2017-Dec-07 21:30N 34°35' W 076°40'5 9.5
2017-Dec-07 21:00N 34°40' W 076°40'4 7.2
2017-Dec-07 20:30N 34°43' W 076°42'0 0.0
2017-Dec-07 19:59N 34°43' W 076°42'0 0.0
2017-Dec-07 19:29N 34°43' W 076°42'0 0.0
2017-Dec-07 18:56N 34°43' W 076°42'0 0.0
2017-Dec-07 18:30N 34°43' W 076°42'0 0.0
2017-Dec-07 17:53N 34°43' W 076°42'0 0.0
2017-Dec-07 17:29N 34°43' W 076°42'0 0.0
2017-Dec-07 17:00N 34°43' W 076°42'0 0.0
2017-Dec-07 16:23N 34°43' W 076°42'0 0.0
2017-Dec-07 15:59N 34°43' W 076°42'0 0.0
2017-Dec-07 14:30N 34°43' W 076°42'0 0.0
2017-Dec-07 14:00N 34°43' W 076°42'0 0.0
2017-Dec-07 13:28N 34°43' W 076°42'0 0.0
2017-Dec-07 12:58N 34°43' W 076°42'0 0.0
2017-Dec-07 12:28N 34°43' W 076°42'0 0.0
2017-Dec-07 11:58N 34°43' W 076°42'0 0.0
2017-Dec-07 11:28N 34°43' W 076°42'0 0.0
2017-Dec-07 10:58N 34°43' W 076°42'0 0.0
2017-Dec-07 10:28N 34°43' W 076°42'0 0.0
2017-Dec-07 09:58N 34°43' W 076°42'0 0.0
2017-Dec-07 09:28N 34°43' W 076°42'0 0.0
2017-Dec-07 08:58N 34°43' W 076°42'0 0.0
2017-Dec-07 08:28N 34°43' W 076°42'0 0.0
2017-Dec-07 07:58N 34°43' W 076°42'0 0.0
2017-Dec-07 07:25N 34°43' W 076°42'0 0.0
2017-Dec-07 06:58N 34°43' W 076°42'0 0.0
2017-Dec-07 06:28N 34°43' W 076°42'0 0.0
2017-Dec-07 05:59N 34°43' W 076°42'0 0.0
2017-Dec-07 05:29N 34°43' W 076°42'0 0.0
2017-Dec-07 05:00N 34°43' W 076°42'0 0.0
2017-Dec-07 04:29N 34°43' W 076°42'0 0.0
2017-Dec-07 03:59N 34°43' W 076°42'0 0.0
2017-Dec-07 03:29N 34°43' W 076°42'0 0.0
2017-Dec-07 02:59N 34°43' W 076°42'0 0.0
2017-Dec-07 02:29N 34°43' W 076°42'0 0.0
2017-Dec-07 01:59N 34°43' W 076°42'0 0.0
2017-Dec-07 01:29N 34°43' W 076°42'0 0.0
2017-Dec-07 00:59N 34°43' W 076°42'0 0.0
2017-Dec-07 00:28N 34°43' W 076°42'0 0.0
2017-Dec-07 00:00N 34°43' W 076°42'0 0.0
2017-Dec-06 23:30N 34°43' W 076°42'0 0.0
2017-Dec-06 23:00N 34°43' W 076°42'0 0.0
2017-Dec-06 22:29N 34°43' W 076°42'0 0.0
2017-Dec-06 21:59N 34°43' W 076°42'0 0.0
2017-Dec-06 21:28N 34°43' W 076°42'0 0.5
2017-Dec-06 21:01N 34°43' W 076°42'  

Dump ship's entire track history